sensor_id;sensor_type;location;lat;lon;timestamp;temperature;humidity
65046;DHT22;54657;52.022;5.534;2022-07-23T00:00:55;18.50;66.60
65046;DHT22;54657;52.022;5.534;2022-07-23T00:03:27;18.40;66.70
65046;DHT22;54657;52.022;5.534;2022-07-23T00:06:13;18.30;66.70
65046;DHT22;54657;52.022;5.534;2022-07-23T00:08:59;18.40;66.70
65046;DHT22;54657;52.022;5.534;2022-07-23T00:11:25;18.40;66.70
65046;DHT22;54657;52.022;5.534;2022-07-23T00:13:51;18.40;66.50
65046;DHT22;54657;52.022;5.534;2022-07-23T00:16:25;18.30;66.50
65046;DHT22;54657;52.022;5.534;2022-07-23T00:18:59;18.30;67.00
65046;DHT22;54657;52.022;5.534;2022-07-23T00:21:34;18.20;66.80
65046;DHT22;54657;52.022;5.534;2022-07-23T00:23:59;18.10;67.00
65046;DHT22;54657;52.022;5.534;2022-07-23T00:26:53;18.00;67.40
65046;DHT22;54657;52.022;5.534;2022-07-23T00:29:21;17.90;67.70
65046;DHT22;54657;52.022;5.534;2022-07-23T00:31:54;17.90;67.50
65046;DHT22;54657;52.022;5.534;2022-07-23T00:34:28;18.00;67.20
65046;DHT22;54657;52.022;5.534;2022-07-23T00:37:00;18.10;67.30
65046;DHT22;54657;52.022;5.534;2022-07-23T00:39:31;18.10;67.10
65046;DHT22;54657;52.022;5.534;2022-07-23T00:42:07;18.10;67.10
65046;DHT22;54657;52.022;5.534;2022-07-23T00:44:36;18.10;66.90
65046;DHT22;54657;52.022;5.534;2022-07-23T00:47:40;18.00;67.00
65046;DHT22;54657;52.022;5.534;2022-07-23T00:50:10;18.00;66.80
65046;DHT22;54657;52.022;5.534;2022-07-23T00:52:54;18.00;66.90
65046;DHT22;54657;52.022;5.534;2022-07-23T00:55:22;18.00;67.00
65046;DHT22;54657;52.022;5.534;2022-07-23T00:58:03;18.00;66.80
65046;DHT22;54657;52.022;5.534;2022-07-23T01:00:29;18.00;66.70
65046;DHT22;54657;52.022;5.534;2022-07-23T01:03:13;18.00;67.60
65046;DHT22;54657;52.022;5.534;2022-07-23T01:05:48;18.00;67.20
65046;DHT22;54657;52.022;5.534;2022-07-23T01:08:20;18.00;66.70
65046;DHT22;54657;52.022;5.534;2022-07-23T01:10:47;18.00;66.70
65046;DHT22;54657;52.022;5.534;2022-07-23T01:13:16;18.00;67.30
65046;DHT22;54657;52.022;5.534;2022-07-23T01:15:42;18.00;66.70
65046;DHT22;54657;52.022;5.534;2022-07-23T01:18:10;18.00;66.70
65046;DHT22;54657;52.022;5.534;2022-07-23T01:21:01;17.90;66.90
65046;DHT22;54657;52.022;5.534;2022-07-23T01:23:30;17.90;67.00
65046;DHT22;54657;52.022;5.534;2022-07-23T01:25:59;17.80;67.10
65046;DHT22;54657;52.022;5.534;2022-07-23T01:28:30;17.80;67.00
65046;DHT22;54657;52.022;5.534;2022-07-23T01:31:20;17.90;67.00
65046;DHT22;54657;52.022;5.534;2022-07-23T01:33:46;17.80;67.40
65046;DHT22;54657;52.022;5.534;2022-07-23T01:36:21;17.70;67.40
65046;DHT22;54657;52.022;5.534;2022-07-23T01:39:13;17.60;67.70
65046;DHT22;54657;52.022;5.534;2022-07-23T01:41:39;17.60;67.60
65046;DHT22;54657;52.022;5.534;2022-07-23T01:44:32;17.70;67.50
65046;DHT22;54657;52.022;5.534;2022-07-23T01:47:08;17.70;68.00
65046;DHT22;54657;52.022;5.534;2022-07-23T01:49:39;17.60;67.70
65046;DHT22;54657;52.022;5.534;2022-07-23T01:52:14;17.60;67.60
65046;DHT22;54657;52.022;5.534;2022-07-23T01:54:43;17.60;67.50
65046;DHT22;54657;52.022;5.534;2022-07-23T01:57:11;17.50;67.60
65046;DHT22;54657;52.022;5.534;2022-07-23T01:59:52;17.50;67.70
65046;DHT22;54657;52.022;5.534;2022-07-23T02:02:21;17.50;67.90
65046;DHT22;54657;52.022;5.534;2022-07-23T02:04:52;17.40;67.90
65046;DHT22;54657;52.022;5.534;2022-07-23T02:07:18;17.40;67.80
65046;DHT22;54657;52.022;5.534;2022-07-23T02:09:49;17.40;68.00
65046;DHT22;54657;52.022;5.534;2022-07-23T02:12:18;17.40;68.00
65046;DHT22;54657;52.022;5.534;2022-07-23T02:14:44;17.40;67.90
65046;DHT22;54657;52.022;5.534;2022-07-23T02:17:13;17.30;67.90
65046;DHT22;54657;52.022;5.534;2022-07-23T02:19:47;17.30;67.90
65046;DHT22;54657;52.022;5.534;2022-07-23T02:22:15;17.30;67.90
65046;DHT22;54657;52.022;5.534;2022-07-23T02:24:44;17.30;67.70
65046;DHT22;54657;52.022;5.534;2022-07-23T02:27:21;17.30;67.60
65046;DHT22;54657;52.022;5.534;2022-07-23T02:29:56;17.30;67.80
65046;DHT22;54657;52.022;5.534;2022-07-23T02:32:30;17.20;67.80
65046;DHT22;54657;52.022;5.534;2022-07-23T02:35:20;17.20;68.00
65046;DHT22;54657;52.022;5.534;2022-07-23T02:37:52;17.10;68.10
65046;DHT22;54657;52.022;5.534;2022-07-23T02:40:18;17.10;68.10
65046;DHT22;54657;52.022;5.534;2022-07-23T02:42:50;17.00;68.00
65046;DHT22;54657;52.022;5.534;2022-07-23T02:45:44;17.00;68.00
65046;DHT22;54657;52.022;5.534;2022-07-23T02:48:33;16.90;68.10
65046;DHT22;54657;52.022;5.534;2022-07-23T02:51:13;17.00;68.30
65046;DHT22;54657;52.022;5.534;2022-07-23T02:53:52;17.00;67.70
65046;DHT22;54657;52.022;5.534;2022-07-23T02:56:31;17.00;68.00
65046;DHT22;54657;52.022;5.534;2022-07-23T02:59:00;16.90;68.10
65046;DHT22;54657;52.022;5.534;2022-07-23T03:01:46;16.90;67.80
65046;DHT22;54657;52.022;5.534;2022-07-23T03:04:32;16.90;68.00
65046;DHT22;54657;52.022;5.534;2022-07-23T03:07:01;16.80;68.20
65046;DHT22;54657;52.022;5.534;2022-07-23T03:09:40;16.80;68.10
65046;DHT22;54657;52.022;5.534;2022-07-23T03:12:10;16.70;68.00
65046;DHT22;54657;52.022;5.534;2022-07-23T03:14:39;16.70;68.10
65046;DHT22;54657;52.022;5.534;2022-07-23T03:17:07;16.70;68.20
65046;DHT22;54657;52.022;5.534;2022-07-23T03:19:33;16.60;68.20
65046;DHT22;54657;52.022;5.534;2022-07-23T03:22:05;16.70;68.10
65046;DHT22;54657;52.022;5.534;2022-07-23T03:24:31;16.70;67.90
65046;DHT22;54657;52.022;5.534;2022-07-23T03:27:18;16.60;67.90
65046;DHT22;54657;52.022;5.534;2022-07-23T03:29:55;16.60;68.00
65046;DHT22;54657;52.022;5.534;2022-07-23T03:32:23;16.50;68.00
65046;DHT22;54657;52.022;5.534;2022-07-23T03:34:52;16.50;68.10
65046;DHT22;54657;52.022;5.534;2022-07-23T03:37:32;16.40;68.30
65046;DHT22;54657;52.022;5.534;2022-07-23T03:45:43;16.40;68.70
65046;DHT22;54657;52.022;5.534;2022-07-23T03:48:25;16.40;68.90
65046;DHT22;54657;52.022;5.534;2022-07-23T03:51:05;16.30;68.40
65046;DHT22;54657;52.022;5.534;2022-07-23T03:53:33;16.40;68.20
65046;DHT22;54657;52.022;5.534;2022-07-23T03:56:07;16.30;68.30
65046;DHT22;54657;52.022;5.534;2022-07-23T03:58:33;16.20;68.30
65046;DHT22;54657;52.022;5.534;2022-07-23T04:01:06;16.20;68.20
65046;DHT22;54657;52.022;5.534;2022-07-23T04:03:35;16.30;68.30
65046;DHT22;54657;52.022;5.534;2022-07-23T04:06:00;16.30;68.10
65046;DHT22;54657;52.022;5.534;2022-07-23T04:08:28;16.30;68.10
65046;DHT22;54657;52.022;5.534;2022-07-23T04:10:57;16.30;68.10
65046;DHT22;54657;52.022;5.534;2022-07-23T04:13:25;16.20;68.20
65046;DHT22;54657;52.022;5.534;2022-07-23T04:16:06;16.20;68.30
65046;DHT22;54657;52.022;5.534;2022-07-23T04:18:47;16.30;68.40
65046;DHT22;54657;52.022;5.534;2022-07-23T04:21:22;16.20;68.50
65046;DHT22;54657;52.022;5.534;2022-07-23T04:24:04;16.20;68.40
65046;DHT22;54657;52.022;5.534;2022-07-23T04:26:32;16.30;68.50
65046;DHT22;54657;52.022;5.534;2022-07-23T04:29:00;16.30;68.20
65046;DHT22;54657;52.022;5.534;2022-07-23T04:31:35;16.40;68.00
65046;DHT22;54657;52.022;5.534;2022-07-23T04:36:59;16.50;67.80
65046;DHT22;54657;52.022;5.534;2022-07-23T04:39:34;16.60;68.00
65046;DHT22;54657;52.022;5.534;2022-07-23T04:42:11;16.60;67.40
65046;DHT22;54657;52.022;5.534;2022-07-23T04:44:39;16.80;67.50
65046;DHT22;54657;52.022;5.534;2022-07-23T04:47:10;16.80;67.00
65046;DHT22;54657;52.022;5.534;2022-07-23T04:52:50;16.90;67.60
65046;DHT22;54657;52.022;5.534;2022-07-23T04:55:30;16.90;67.30
65046;DHT22;54657;52.022;5.534;2022-07-23T05:01:14;17.10;67.60
65046;DHT22;54657;52.022;5.534;2022-07-23T05:03:43;17.00;67.40
65046;DHT22;54657;52.022;5.534;2022-07-23T05:06:09;17.20;67.40
65046;DHT22;54657;52.022;5.534;2022-07-23T05:08:45;17.10;67.40
65046;DHT22;54657;52.022;5.534;2022-07-23T05:11:40;17.30;67.40
65046;DHT22;54657;52.022;5.534;2022-07-23T05:14:11;17.40;67.30
65046;DHT22;54657;52.022;5.534;2022-07-23T05:16:44;17.40;67.10
65046;DHT22;54657;52.022;5.534;2022-07-23T05:19:12;17.50;67.20
65046;DHT22;54657;52.022;5.534;2022-07-23T05:21:53;17.40;67.30
65046;DHT22;54657;52.022;5.534;2022-07-23T05:24:32;17.50;67.30
65046;DHT22;54657;52.022;5.534;2022-07-23T05:27:06;17.70;67.20
65046;DHT22;54657;52.022;5.534;2022-07-23T05:29:41;17.70;66.90
65046;DHT22;54657;52.022;5.534;2022-07-23T05:32:09;17.80;67.00
65046;DHT22;54657;52.022;5.534;2022-07-23T05:34:43;17.80;66.80
65046;DHT22;54657;52.022;5.534;2022-07-23T05:37:18;17.80;67.10
65046;DHT22;54657;52.022;5.534;2022-07-23T05:39:54;17.70;67.40
65046;DHT22;54657;52.022;5.534;2022-07-23T05:42:20;17.70;67.80
65046;DHT22;54657;52.022;5.534;2022-07-23T05:44:45;17.70;67.80
65046;DHT22;54657;52.022;5.534;2022-07-23T05:47:19;17.70;67.80
65046;DHT22;54657;52.022;5.534;2022-07-23T05:49:56;17.80;67.90
65046;DHT22;54657;52.022;5.534;2022-07-23T05:52:30;17.80;68.10
65046;DHT22;54657;52.022;5.534;2022-07-23T05:55:10;17.70;68.20
65046;DHT22;54657;52.022;5.534;2022-07-23T05:57:54;17.70;68.40
65046;DHT22;54657;52.022;5.534;2022-07-23T06:00:26;17.80;68.30
65046;DHT22;54657;52.022;5.534;2022-07-23T06:02:56;17.90;68.00
65046;DHT22;54657;52.022;5.534;2022-07-23T06:05:28;18.00;68.00
65046;DHT22;54657;52.022;5.534;2022-07-23T06:08:05;17.90;68.20
65046;DHT22;54657;52.022;5.534;2022-07-23T06:10:33;17.90;68.10
65046;DHT22;54657;52.022;5.534;2022-07-23T06:13:08;17.90;68.40
65046;DHT22;54657;52.022;5.534;2022-07-23T06:15:47;18.00;68.50
65046;DHT22;54657;52.022;5.534;2022-07-23T06:18:18;18.20;68.10
65046;DHT22;54657;52.022;5.534;2022-07-23T06:20:46;18.30;67.90
65046;DHT22;54657;52.022;5.534;2022-07-23T06:23:18;18.30;67.80
65046;DHT22;54657;52.022;5.534;2022-07-23T06:25:50;18.40;67.70
65046;DHT22;54657;52.022;5.534;2022-07-23T06:28:24;18.50;67.80
65046;DHT22;54657;52.022;5.534;2022-07-23T06:31:00;18.60;67.80
65046;DHT22;54657;52.022;5.534;2022-07-23T06:33:28;18.60;67.80
65046;DHT22;54657;52.022;5.534;2022-07-23T06:36:12;18.60;67.40
65046;DHT22;54657;52.022;5.534;2022-07-23T06:39:18;18.80;67.60
65046;DHT22;54657;52.022;5.534;2022-07-23T06:41:50;18.80;67.50
65046;DHT22;54657;52.022;5.534;2022-07-23T06:44:27;18.80;67.20
65046;DHT22;54657;52.022;5.534;2022-07-23T06:46:55;18.90;67.20
65046;DHT22;54657;52.022;5.534;2022-07-23T06:49:36;19.00;67.20
65046;DHT22;54657;52.022;5.534;2022-07-23T06:52:07;19.10;66.90
65046;DHT22;54657;52.022;5.534;2022-07-23T06:54:36;19.30;66.70
65046;DHT22;54657;52.022;5.534;2022-07-23T06:57:07;19.40;66.50
65046;DHT22;54657;52.022;5.534;2022-07-23T06:59:49;19.50;66.30
65046;DHT22;54657;52.022;5.534;2022-07-23T07:02:20;19.60;66.30
65046;DHT22;54657;52.022;5.534;2022-07-23T07:04:54;19.80;66.30
65046;DHT22;54657;52.022;5.534;2022-07-23T07:07:45;19.90;66.00
65046;DHT22;54657;52.022;5.534;2022-07-23T07:10:14;20.00;65.40
65046;DHT22;54657;52.022;5.534;2022-07-23T07:12:59;20.10;65.60
65046;DHT22;54657;52.022;5.534;2022-07-23T07:15:27;20.30;65.40
65046;DHT22;54657;52.022;5.534;2022-07-23T07:17:59;20.50;64.90
65046;DHT22;54657;52.022;5.534;2022-07-23T07:20:45;20.60;64.50
65046;DHT22;54657;52.022;5.534;2022-07-23T07:23:21;20.60;64.50
65046;DHT22;54657;52.022;5.534;2022-07-23T07:25:50;20.50;65.00
65046;DHT22;54657;52.022;5.534;2022-07-23T07:28:29;20.70;64.80
65046;DHT22;54657;52.022;5.534;2022-07-23T07:31:01;20.90;64.50
65046;DHT22;54657;52.022;5.534;2022-07-23T07:33:35;20.90;64.10
65046;DHT22;54657;52.022;5.534;2022-07-23T07:36:13;20.80;63.80
65046;DHT22;54657;52.022;5.534;2022-07-23T07:38:46;20.70;64.30
65046;DHT22;54657;52.022;5.534;2022-07-23T07:41:21;20.90;64.00
65046;DHT22;54657;52.022;5.534;2022-07-23T07:43:52;20.90;64.10
65046;DHT22;54657;52.022;5.534;2022-07-23T07:46:23;20.80;63.80
65046;DHT22;54657;52.022;5.534;2022-07-23T07:48:59;20.80;63.80
65046;DHT22;54657;52.022;5.534;2022-07-23T07:51:29;20.80;63.70
65046;DHT22;54657;52.022;5.534;2022-07-23T07:54:06;20.90;63.90
65046;DHT22;54657;52.022;5.534;2022-07-23T07:56:32;21.00;63.70
65046;DHT22;54657;52.022;5.534;2022-07-23T07:59:12;21.10;63.80
65046;DHT22;54657;52.022;5.534;2022-07-23T08:01:45;21.20;63.40
65046;DHT22;54657;52.022;5.534;2022-07-23T08:04:16;21.20;63.10
65046;DHT22;54657;52.022;5.534;2022-07-23T08:06:50;21.00;63.80
65046;DHT22;54657;52.022;5.534;2022-07-23T08:09:32;20.90;64.10
65046;DHT22;54657;52.022;5.534;2022-07-23T08:12:11;21.10;64.10
65046;DHT22;54657;52.022;5.534;2022-07-23T08:14:46;21.20;63.30
65046;DHT22;54657;52.022;5.534;2022-07-23T08:17:21;21.40;63.50
65046;DHT22;54657;52.022;5.534;2022-07-23T08:20:09;21.40;63.40
65046;DHT22;54657;52.022;5.534;2022-07-23T08:22:56;21.40;62.50
65046;DHT22;54657;52.022;5.534;2022-07-23T08:25:34;21.30;62.60
65046;DHT22;54657;52.022;5.534;2022-07-23T08:28:01;21.20;63.20
65046;DHT22;54657;52.022;5.534;2022-07-23T08:30:34;21.00;63.80
65046;DHT22;54657;52.022;5.534;2022-07-23T08:33:17;21.10;63.90
65046;DHT22;54657;52.022;5.534;2022-07-23T08:35:49;21.10;63.80
65046;DHT22;54657;52.022;5.534;2022-07-23T08:38:21;21.10;63.50
65046;DHT22;54657;52.022;5.534;2022-07-23T08:40:54;21.20;63.60
65046;DHT22;54657;52.022;5.534;2022-07-23T08:43:25;21.20;63.10
65046;DHT22;54657;52.022;5.534;2022-07-23T08:46:01;21.10;63.30
65046;DHT22;54657;52.022;5.534;2022-07-23T08:48:37;21.10;63.40
65046;DHT22;54657;52.022;5.534;2022-07-23T08:51:18;21.30;62.00
65046;DHT22;54657;52.022;5.534;2022-07-23T08:53:44;21.30;62.80
65046;DHT22;54657;52.022;5.534;2022-07-23T08:56:16;21.40;62.70
65046;DHT22;54657;52.022;5.534;2022-07-23T08:58:53;21.50;62.20
65046;DHT22;54657;52.022;5.534;2022-07-23T09:01:24;21.60;61.50
65046;DHT22;54657;52.022;5.534;2022-07-23T09:03:59;21.50;61.90
65046;DHT22;54657;52.022;5.534;2022-07-23T09:06:32;21.40;62.20
65046;DHT22;54657;52.022;5.534;2022-07-23T09:09:16;21.30;62.30
65046;DHT22;54657;52.022;5.534;2022-07-23T09:12:05;21.40;61.00
65046;DHT22;54657;52.022;5.534;2022-07-23T09:17:46;21.60;61.80
65046;DHT22;54657;52.022;5.534;2022-07-23T09:20:19;21.80;62.00
65046;DHT22;54657;52.022;5.534;2022-07-23T09:22:51;21.90;61.40
65046;DHT22;54657;52.022;5.534;2022-07-23T09:25:22;22.00;61.40
65046;DHT22;54657;52.022;5.534;2022-07-23T09:28:01;22.10;61.30
65046;DHT22;54657;52.022;5.534;2022-07-23T09:30:43;22.20;61.20
65046;DHT22;54657;52.022;5.534;2022-07-23T09:33:17;22.20;60.00
65046;DHT22;54657;52.022;5.534;2022-07-23T09:36:23;22.10;61.10
65046;DHT22;54657;52.022;5.534;2022-07-23T09:38:55;22.10;59.90
65046;DHT22;54657;52.022;5.534;2022-07-23T09:41:46;22.10;61.40
65046;DHT22;54657;52.022;5.534;2022-07-23T09:44:23;22.10;59.60
65046;DHT22;54657;52.022;5.534;2022-07-23T09:46:50;22.10;60.10
65046;DHT22;54657;52.022;5.534;2022-07-23T09:49:29;22.10;60.40
65046;DHT22;54657;52.022;5.534;2022-07-23T09:52:08;22.10;60.40
65046;DHT22;54657;52.022;5.534;2022-07-23T09:55:00;22.10;58.30
65046;DHT22;54657;52.022;5.534;2022-07-23T09:57:40;22.20;58.80
65046;DHT22;54657;52.022;5.534;2022-07-23T10:00:07;22.30;57.60
65046;DHT22;54657;52.022;5.534;2022-07-23T10:02:37;22.30;59.80
65046;DHT22;54657;52.022;5.534;2022-07-23T10:05:06;22.40;60.00
65046;DHT22;54657;52.022;5.534;2022-07-23T10:07:37;22.40;58.90
65046;DHT22;54657;52.022;5.534;2022-07-23T10:10:06;22.40;59.50
65046;DHT22;54657;52.022;5.534;2022-07-23T10:12:36;22.40;59.80
65046;DHT22;54657;52.022;5.534;2022-07-23T10:15:20;22.40;59.40
65046;DHT22;54657;52.022;5.534;2022-07-23T10:17:51;22.40;60.00
65046;DHT22;54657;52.022;5.534;2022-07-23T10:20:17;22.50;59.40
65046;DHT22;54657;52.022;5.534;2022-07-23T10:23:02;22.50;59.70
65046;DHT22;54657;52.022;5.534;2022-07-23T10:26:02;22.50;58.80
65046;DHT22;54657;52.022;5.534;2022-07-23T10:36:28;23.00;58.10
65046;DHT22;54657;52.022;5.534;2022-07-23T10:42:33;23.10;56.10
65046;DHT22;54657;52.022;5.534;2022-07-23T10:47:50;23.10;57.90
65046;DHT22;54657;52.022;5.534;2022-07-23T10:50:26;23.10;58.50
65046;DHT22;54657;52.022;5.534;2022-07-23T10:55:42;23.20;56.90
65046;DHT22;54657;52.022;5.534;2022-07-23T10:58:11;23.30;57.50
65046;DHT22;54657;52.022;5.534;2022-07-23T11:00:44;23.30;57.80
65046;DHT22;54657;52.022;5.534;2022-07-23T11:03:30;23.50;57.70
65046;DHT22;54657;52.022;5.534;2022-07-23T11:06:13;23.50;56.20
65046;DHT22;54657;52.022;5.534;2022-07-23T11:08:42;23.60;57.50
65046;DHT22;54657;52.022;5.534;2022-07-23T11:11:11;23.70;56.80
65046;DHT22;54657;52.022;5.534;2022-07-23T11:13:41;23.80;57.00
65046;DHT22;54657;52.022;5.534;2022-07-23T11:16:26;23.80;56.00
65046;DHT22;54657;52.022;5.534;2022-07-23T11:19:03;23.80;54.50
65046;DHT22;54657;52.022;5.534;2022-07-23T11:24:08;23.90;55.80
65046;DHT22;54657;52.022;5.534;2022-07-23T11:32:08;24.10;53.90
65046;DHT22;54657;52.022;5.534;2022-07-23T11:34:47;24.10;56.20
65046;DHT22;54657;52.022;5.534;2022-07-23T11:37:40;24.20;55.40
65046;DHT22;54657;52.022;5.534;2022-07-23T11:40:12;24.50;54.00
65046;DHT22;54657;52.022;5.534;2022-07-23T11:42:39;24.60;55.50
65046;DHT22;54657;52.022;5.534;2022-07-23T11:45:07;24.70;53.00
65046;DHT22;54657;52.022;5.534;2022-07-23T11:47:33;24.70;55.40
65046;DHT22;54657;52.022;5.534;2022-07-23T11:50:18;24.90;55.30
65046;DHT22;54657;52.022;5.534;2022-07-23T11:52:50;24.90;54.30
65046;DHT22;54657;52.022;5.534;2022-07-23T11:55:21;24.80;54.90
65046;DHT22;54657;52.022;5.534;2022-07-23T12:00:54;25.00;54.30
65046;DHT22;54657;52.022;5.534;2022-07-23T12:03:26;24.90;55.20
65046;DHT22;54657;52.022;5.534;2022-07-23T12:05:56;24.90;55.00
65046;DHT22;54657;52.022;5.534;2022-07-23T12:08:51;24.80;54.40
65046;DHT22;54657;52.022;5.534;2022-07-23T12:11:19;24.80;53.80
65046;DHT22;54657;52.022;5.534;2022-07-23T12:14:10;24.80;54.70
65046;DHT22;54657;52.022;5.534;2022-07-23T12:16:41;24.90;53.80
65046;DHT22;54657;52.022;5.534;2022-07-23T12:19:10;25.00;54.90
65046;DHT22;54657;52.022;5.534;2022-07-23T12:21:36;25.10;54.80
65046;DHT22;54657;52.022;5.534;2022-07-23T12:24:06;25.10;54.90
65046;DHT22;54657;52.022;5.534;2022-07-23T12:29:56;25.30;53.20
65046;DHT22;54657;52.022;5.534;2022-07-23T12:32:44;25.40;54.50
65046;DHT22;54657;52.022;5.534;2022-07-23T12:35:16;25.40;53.60
65046;DHT22;54657;52.022;5.534;2022-07-23T12:37:44;25.50;53.90
65046;DHT22;54657;52.022;5.534;2022-07-23T12:40:30;25.60;53.60
65046;DHT22;54657;52.022;5.534;2022-07-23T12:43:07;25.70;52.30
65046;DHT22;54657;52.022;5.534;2022-07-23T12:46:15;25.70;53.10
65046;DHT22;54657;52.022;5.534;2022-07-23T12:48:56;25.70;52.60
65046;DHT22;54657;52.022;5.534;2022-07-23T12:51:44;25.60;53.10
65046;DHT22;54657;52.022;5.534;2022-07-23T12:54:14;25.60;53.10
65046;DHT22;54657;52.022;5.534;2022-07-23T12:56:53;25.50;53.90
65046;DHT22;54657;52.022;5.534;2022-07-23T12:59:24;25.50;52.70
65046;DHT22;54657;52.022;5.534;2022-07-23T13:02:14;25.50;53.20
65046;DHT22;54657;52.022;5.534;2022-07-23T13:04:47;25.60;53.40
65046;DHT22;54657;52.022;5.534;2022-07-23T13:07:13;25.80;53.20
65046;DHT22;54657;52.022;5.534;2022-07-23T13:09:48;25.90;53.10
65046;DHT22;54657;52.022;5.534;2022-07-23T13:12:19;26.00;52.40
65046;DHT22;54657;52.022;5.534;2022-07-23T13:14:45;26.10;52.60
65046;DHT22;54657;52.022;5.534;2022-07-23T13:17:19;26.20;52.90
65046;DHT22;54657;52.022;5.534;2022-07-23T13:19:51;26.30;52.80
65046;DHT22;54657;52.022;5.534;2022-07-23T13:22:22;26.40;51.80
65046;DHT22;54657;52.022;5.534;2022-07-23T13:24:50;26.40;51.50
65046;DHT22;54657;52.022;5.534;2022-07-23T13:27:22;26.20;52.30
65046;DHT22;54657;52.022;5.534;2022-07-23T13:30:17;26.10;52.50
65046;DHT22;54657;52.022;5.534;2022-07-23T13:32:49;26.10;51.40
65046;DHT22;54657;52.022;5.534;2022-07-23T13:35:31;26.00;52.30
65046;DHT22;54657;52.022;5.534;2022-07-23T13:38:00;25.90;52.40
65046;DHT22;54657;52.022;5.534;2022-07-23T13:40:41;25.80;52.40
65046;DHT22;54657;52.022;5.534;2022-07-23T13:43:15;25.90;51.60
65046;DHT22;54657;52.022;5.534;2022-07-23T13:45:51;25.80;52.20
65046;DHT22;54657;52.022;5.534;2022-07-23T13:48:20;25.70;52.50
65046;DHT22;54657;52.022;5.534;2022-07-23T13:53:46;25.80;51.80
65046;DHT22;54657;52.022;5.534;2022-07-23T13:56:14;25.70;52.10
65046;DHT22;54657;52.022;5.534;2022-07-23T13:59:06;25.70;52.10
65046;DHT22;54657;52.022;5.534;2022-07-23T14:01:32;25.70;52.20
65046;DHT22;54657;52.022;5.534;2022-07-23T14:04:04;25.70;52.10
65046;DHT22;54657;52.022;5.534;2022-07-23T14:06:30;25.70;51.20
65046;DHT22;54657;52.022;5.534;2022-07-23T14:08:56;25.70;51.90
65046;DHT22;54657;52.022;5.534;2022-07-23T14:11:24;25.70;51.60
65046;DHT22;54657;52.022;5.534;2022-07-23T14:13:52;25.80;51.30
65046;DHT22;54657;52.022;5.534;2022-07-23T14:16:24;25.90;51.50
65046;DHT22;54657;52.022;5.534;2022-07-23T14:21:31;26.00;51.00
65046;DHT22;54657;52.022;5.534;2022-07-23T14:24:00;25.90;50.90
65046;DHT22;54657;52.022;5.534;2022-07-23T14:29:52;25.80;50.30
65046;DHT22;54657;52.022;5.534;2022-07-23T14:32:44;25.90;50.70
65046;DHT22;54657;52.022;5.534;2022-07-23T14:35:12;26.00;50.60
65046;DHT22;54657;52.022;5.534;2022-07-23T14:37:46;26.10;50.70
65046;DHT22;54657;52.022;5.534;2022-07-23T14:40:12;26.20;50.30
65046;DHT22;54657;52.022;5.534;2022-07-23T14:42:46;26.30;50.40
65046;DHT22;54657;52.022;5.534;2022-07-23T14:45:33;26.40;49.80
65046;DHT22;54657;52.022;5.534;2022-07-23T14:48:09;26.50;50.20
65046;DHT22;54657;52.022;5.534;2022-07-23T14:50:53;26.60;48.40
65046;DHT22;54657;52.022;5.534;2022-07-23T14:53:21;26.60;49.50
65046;DHT22;54657;52.022;5.534;2022-07-23T14:55:57;26.70;49.60
65046;DHT22;54657;52.022;5.534;2022-07-23T14:58:45;26.70;49.30
65046;DHT22;54657;52.022;5.534;2022-07-23T15:01:34;26.70;45.50
65046;DHT22;54657;52.022;5.534;2022-07-23T15:04:06;26.60;47.90
65046;DHT22;54657;52.022;5.534;2022-07-23T15:06:35;26.60;49.40
65046;DHT22;54657;52.022;5.534;2022-07-23T15:09:12;26.60;49.00
65046;DHT22;54657;52.022;5.534;2022-07-23T15:11:41;26.60;49.50
65046;DHT22;54657;52.022;5.534;2022-07-23T15:16:56;26.70;49.00
65046;DHT22;54657;52.022;5.534;2022-07-23T15:19:28;26.60;49.00
65046;DHT22;54657;52.022;5.534;2022-07-23T15:21:54;26.60;48.90
65046;DHT22;54657;52.022;5.534;2022-07-23T15:24:22;26.50;46.00
65046;DHT22;54657;52.022;5.534;2022-07-23T15:26:48;26.50;49.60
65046;DHT22;54657;52.022;5.534;2022-07-23T15:29:33;26.50;49.40
65046;DHT22;54657;52.022;5.534;2022-07-23T15:32:23;26.50;46.40
65046;DHT22;54657;52.022;5.534;2022-07-23T15:34:54;26.50;48.50
65046;DHT22;54657;52.022;5.534;2022-07-23T15:37:25;26.50;49.00
65046;DHT22;54657;52.022;5.534;2022-07-23T15:39:51;26.50;49.20
65046;DHT22;54657;52.022;5.534;2022-07-23T15:42:17;26.60;48.90
65046;DHT22;54657;52.022;5.534;2022-07-23T15:44:48;26.60;48.90
65046;DHT22;54657;52.022;5.534;2022-07-23T15:47:18;26.60;48.50
65046;DHT22;54657;52.022;5.534;2022-07-23T15:49:49;26.50;48.50
65046;DHT22;54657;52.022;5.534;2022-07-23T15:52:15;26.50;48.20
65046;DHT22;54657;52.022;5.534;2022-07-23T15:54:47;26.50;48.70
65046;DHT22;54657;52.022;5.534;2022-07-23T15:57:15;26.60;48.20
65046;DHT22;54657;52.022;5.534;2022-07-23T15:59:43;26.50;48.30
65046;DHT22;54657;52.022;5.534;2022-07-23T16:02:14;26.60;48.10
65046;DHT22;54657;52.022;5.534;2022-07-23T16:04:46;26.50;47.90
65046;DHT22;54657;52.022;5.534;2022-07-23T16:07:29;26.40;48.50
65046;DHT22;54657;52.022;5.534;2022-07-23T16:10:01;26.40;48.40
65046;DHT22;54657;52.022;5.534;2022-07-23T16:12:26;26.40;48.40
65046;DHT22;54657;52.022;5.534;2022-07-23T16:14:52;26.40;48.20
65046;DHT22;54657;52.022;5.534;2022-07-23T16:17:18;26.40;48.40
65046;DHT22;54657;52.022;5.534;2022-07-23T16:19:48;26.30;47.90
65046;DHT22;54657;52.022;5.534;2022-07-23T16:22:16;26.30;48.10
65046;DHT22;54657;52.022;5.534;2022-07-23T16:24:47;26.20;48.60
65046;DHT22;54657;52.022;5.534;2022-07-23T16:27:23;26.20;48.00
65046;DHT22;54657;52.022;5.534;2022-07-23T16:29:57;26.20;48.40
65046;DHT22;54657;52.022;5.534;2022-07-23T16:35:39;26.20;47.40
65046;DHT22;54657;52.022;5.534;2022-07-23T16:38:04;26.00;47.30
65046;DHT22;54657;52.022;5.534;2022-07-23T16:41:11;26.00;48.40
65046;DHT22;54657;52.022;5.534;2022-07-23T16:43:44;26.10;46.90
65046;DHT22;54657;52.022;5.534;2022-07-23T16:46:19;26.10;48.10
65046;DHT22;54657;52.022;5.534;2022-07-23T16:48:55;26.00;48.10
65046;DHT22;54657;52.022;5.534;2022-07-23T16:51:28;26.00;47.90
65046;DHT22;54657;52.022;5.534;2022-07-23T16:53:56;26.10;46.70
65046;DHT22;54657;52.022;5.534;2022-07-23T16:56:22;26.00;47.90
65046;DHT22;54657;52.022;5.534;2022-07-23T16:58:52;25.90;48.10
65046;DHT22;54657;52.022;5.534;2022-07-23T17:01:20;25.90;48.10
65046;DHT22;54657;52.022;5.534;2022-07-23T17:03:52;25.90;47.40
65046;DHT22;54657;52.022;5.534;2022-07-23T17:06:23;25.90;48.20
65046;DHT22;54657;52.022;5.534;2022-07-23T17:08:55;25.90;47.90
65046;DHT22;54657;52.022;5.534;2022-07-23T17:11:31;25.90;48.10
65046;DHT22;54657;52.022;5.534;2022-07-23T17:14:07;25.90;47.70
65046;DHT22;54657;52.022;5.534;2022-07-23T17:16:44;25.90;47.00
65046;DHT22;54657;52.022;5.534;2022-07-23T17:19:15;25.90;48.00